createdAt,value
2019-04-23T00:02:39.341Z,95.60
2019-04-23T00:05:10.748Z,95.30
2019-04-23T00:07:56.182Z,95.10
2019-04-23T00:12:49.459Z,94.80
2019-04-23T00:15:10.635Z,94.60
2019-04-23T00:23:00.298Z,94.50
2019-04-23T00:28:09.503Z,94.20
2019-04-23T00:33:08.205Z,93.90
2019-04-23T00:35:41.737Z,94.00
2019-04-23T00:38:12.091Z,93.80
2019-04-23T00:40:39.961Z,93.80
2019-04-23T00:43:09.134Z,93.80
2019-04-23T00:48:26.117Z,93.80
2019-04-23T00:50:52.878Z,93.60
2019-04-23T00:53:22.080Z,93.60
2019-04-23T00:56:03.121Z,93.60
2019-04-23T01:00:57.864Z,93.50
2019-04-23T01:03:29.459Z,93.40
2019-04-23T01:06:15.137Z,93.50
2019-04-23T01:08:45.528Z,93.60
2019-04-23T01:11:18.127Z,93.70
2019-04-23T01:13:48.974Z,93.70
2019-04-23T01:16:14.984Z,93.60
2019-04-23T01:18:58.257Z,93.60
2019-04-23T01:21:22.284Z,93.70
2019-04-23T01:24:14.191Z,93.70
2019-04-23T01:29:57.940Z,93.70
2019-04-23T01:32:28.917Z,93.80
2019-04-23T01:35:09.725Z,93.70
2019-04-23T01:37:30.098Z,93.70
2019-04-23T01:39:57.625Z,93.40
2019-04-23T01:42:37.339Z,93.70
2019-04-23T01:45:11.777Z,93.60
2019-04-23T01:47:39.007Z,93.40
2019-04-23T01:52:49.901Z,93.40
2019-04-23T01:55:15.275Z,93.40
2019-04-23T01:57:46.919Z,93.70
2019-04-23T02:00:17.317Z,93.70
2019-04-23T02:02:51.033Z,93.80
2019-04-23T02:05:24.318Z,93.90
2019-04-23T02:07:50.928Z,94.10
2019-04-23T02:10:20.594Z,94.10
2019-04-23T02:12:55.635Z,94.00
2019-04-23T02:15:23.083Z,94.00
2019-04-23T02:20:44.365Z,94.00
2019-04-23T02:23:04.648Z,93.90
2019-04-23T02:25:40.779Z,93.90
2019-04-23T02:30:54.917Z,93.50
2019-04-23T02:33:23.818Z,93.40
2019-04-23T02:35:52.368Z,93.40
2019-04-23T02:38:40.604Z,93.30
2019-04-23T02:41:04.798Z,93.20
2019-04-23T02:45:59.112Z,93.20
2019-04-23T02:51:04.415Z,93.20
2019-04-23T02:56:04.365Z,93.10
2019-04-23T02:58:43.902Z,93.10
2019-04-23T03:01:15.264Z,93.20
2019-04-23T03:08:32.752Z,93.20
2019-04-23T03:11:09.802Z,93.20
2019-04-23T03:13:50.716Z,93.10
2019-04-23T03:21:33.831Z,93.10
2019-04-23T03:24:13.395Z,93.10
2019-04-23T03:35:39.360Z,93.20
2019-04-23T03:39:40.141Z,93.30
2019-04-23T03:42:02.017Z,93.30
2019-04-23T03:47:04.061Z,93.20
2019-04-23T03:52:16.039Z,93.10
2019-04-23T03:57:15.712Z,92.90
2019-04-23T03:59:44.684Z,92.80
2019-04-23T04:02:20.737Z,92.60
2019-04-23T04:12:27.411Z,92.20
2019-04-23T04:14:44.408Z,92.00
2019-04-23T04:17:14.428Z,91.90
2019-04-23T04:19:47.690Z,91.80
2019-04-23T04:29:52.274Z,91.10
2019-04-23T04:32:17.472Z,91.10
2019-04-23T04:35:12.520Z,91.10
2019-04-23T04:37:48.527Z,91.00
2019-04-23T04:42:24.863Z,90.90
2019-04-23T04:47:36.104Z,90.90
2019-04-23T04:49:59.612Z,90.80
2019-04-23T04:52:43.749Z,90.80
2019-04-23T04:55:03.074Z,90.70
2019-04-23T04:57:36.515Z,90.90
2019-04-23T05:02:57.396Z,90.60
2019-04-23T05:18:03.602Z,90.30
2019-04-23T05:20:19.962Z,90.20
2019-04-23T05:23:00.443Z,90.10
2019-04-23T05:25:12.507Z,90.00
2019-04-23T05:30:29.234Z,90.00
2019-04-23T05:32:56.421Z,89.90
2019-04-23T05:35:42.491Z,89.70
2019-04-23T05:38:08.868Z,90.00
2019-04-23T05:40:37.242Z,89.40
2019-04-23T05:42:58.867Z,89.40
2019-04-23T05:50:40.813Z,89.10
2019-04-23T05:53:13.437Z,88.70
2019-04-23T05:55:46.201Z,88.50
2019-04-23T05:58:15.350Z,88.60
2019-04-23T06:00:45.868Z,87.90
2019-04-23T06:03:19.216Z,87.70
2019-04-23T06:05:49.709Z,87.20
2019-04-23T06:08:25.564Z,86.70
2019-04-23T06:13:19.192Z,87.00
2019-04-23T06:15:55.778Z,86.00
2019-04-23T06:18:28.540Z,85.10
2019-04-23T06:21:00.181Z,85.10
2019-04-23T06:23:38.220Z,84.50
2019-04-23T06:26:15.018Z,84.40
2019-04-23T06:28:24.655Z,84.00
2019-04-23T06:31:02.401Z,83.00
2019-04-23T06:33:35.553Z,82.30
2019-04-23T06:36:05.478Z,80.50
2019-04-23T06:41:00.809Z,73.00
2019-04-23T06:43:47.158Z,70.20
2019-04-23T06:46:13.364Z,68.60
2019-04-23T06:48:40.786Z,67.10
2019-04-23T06:51:20.152Z,65.40
2019-04-23T06:53:43.698Z,64.40
2019-04-23T06:56:19.170Z,63.60
2019-04-23T06:58:44.087Z,63.40
2019-04-23T07:01:17.633Z,63.30
2019-04-23T07:03:51.861Z,62.70
2019-04-23T07:06:23.312Z,61.40
2019-04-23T07:09:05.164Z,61.30
2019-04-23T07:13:58.320Z,60.00
2019-04-23T07:16:27.705Z,59.70
2019-04-23T07:19:07.773Z,59.10
2019-04-23T07:21:21.954Z,58.90
2019-04-23T07:24:05.700Z,59.00
2019-04-23T07:28:58.578Z,58.30
2019-04-23T07:31:37.969Z,58.50
2019-04-23T07:34:01.314Z,58.50
2019-04-23T07:36:36.166Z,57.60
2019-04-23T07:39:06.331Z,58.60
2019-04-23T07:41:56.017Z,57.30
2019-04-23T07:44:28.197Z,58.00
2019-04-23T07:47:03.953Z,57.90
2019-04-23T07:49:23.692Z,57.60
2019-04-23T07:52:03.711Z,57.10
2019-04-23T07:54:32.558Z,57.00
2019-04-23T07:57:08.903Z,56.80
2019-04-23T07:59:35.059Z,56.60
2019-04-23T08:02:06.150Z,56.60
2019-04-23T08:04:48.820Z,56.80
2019-04-23T08:07:09.618Z,56.80
2019-04-23T08:09:43.685Z,56.80
2019-04-23T08:12:11.613Z,57.10
2019-04-23T08:14:51.553Z,57.10
2019-04-23T08:17:12.318Z,56.10
2019-04-23T08:19:49.185Z,56.10
2019-04-23T08:24:56.591Z,55.60
2019-04-23T08:27:22.530Z,55.50
2019-04-23T08:29:58.475Z,56.20
2019-04-23T08:35:04.349Z,57.30
2019-04-23T08:37:51.211Z,57.10
2019-04-23T08:40:09.859Z,57.10
2019-04-23T08:42:58.169Z,56.50
2019-04-23T08:45:15.313Z,56.30
2019-04-23T08:47:43.676Z,55.60
2019-04-23T08:50:15.483Z,55.40
2019-04-23T08:52:54.019Z,55.80
2019-04-23T08:55:22.813Z,55.00
2019-04-23T08:57:42.680Z,55.10
2019-04-23T09:00:23.638Z,54.90
2019-04-23T09:02:54.037Z,55.10
2019-04-23T09:05:28.620Z,55.10
2019-04-23T09:08:01.542Z,53.40
2019-04-23T09:10:32.547Z,53.10
2019-04-23T09:13:10.108Z,53.30
2019-04-23T09:15:33.373Z,53.50
2019-04-23T09:22:55.470Z,53.00
2019-04-23T09:25:36.751Z,53.40
2019-04-23T09:27:59.426Z,53.30
2019-04-23T09:30:42.231Z,54.00
2019-04-23T09:33:28.261Z,54.10
2019-04-23T09:36:20.745Z,53.90
2019-04-23T09:38:55.936Z,54.00
2019-04-23T09:41:32.366Z,54.30
2019-04-23T09:43:58.515Z,54.20
2019-04-23T09:46:29.050Z,54.80
2019-04-23T09:49:09.577Z,53.90
2019-04-23T09:51:36.729Z,53.30
2019-04-23T09:54:12.844Z,53.60
2019-04-23T09:56:39.342Z,54.30
2019-04-23T09:59:15.662Z,53.30
2019-04-23T10:01:46.210Z,53.30
2019-04-23T10:03:57.652Z,53.00
2019-04-23T10:06:20.870Z,51.70
2019-04-23T10:08:50.008Z,52.10
2019-04-23T10:11:19.544Z,51.40
2019-04-23T10:13:48.371Z,51.40
2019-04-23T10:16:21.378Z,51.50
2019-04-23T10:18:49.214Z,51.80
2019-04-23T10:21:21.345Z,51.40
2019-04-23T10:23:51.673Z,51.40
2019-04-23T10:26:21.838Z,51.40
2019-04-23T10:28:53.997Z,50.70
2019-04-23T10:31:24.953Z,50.20
2019-04-23T10:33:55.980Z,50.30
2019-04-23T10:36:27.896Z,50.10
2019-04-23T10:39:03.548Z,51.20
2019-04-23T10:41:30.147Z,50.70
2019-04-23T10:44:04.967Z,51.20
2019-04-23T10:47:12.279Z,51.50
2019-04-23T10:54:57.633Z,51.90
2019-04-23T10:57:19.855Z,52.20
2019-04-23T10:59:47.283Z,51.20
2019-04-23T11:12:42.389Z,51.50
2019-04-23T11:17:46.525Z,51.60
2019-04-23T11:20:25.537Z,52.10
2019-04-23T11:22:46.090Z,51.60
2019-04-23T11:25:26.361Z,51.70
2019-04-23T11:27:48.971Z,51.80
2019-04-23T11:30:26.263Z,51.20
2019-04-23T11:43:01.794Z,52.50
2019-04-23T11:48:22.503Z,52.90
2019-04-23T11:51:10.459Z,52.10
2019-04-23T11:51:10.459Z,52.40
2019-04-23T11:53:01.168Z,53.00
2019-04-23T11:55:49.425Z,53.40
2019-04-23T11:58:14.999Z,53.30
2019-04-23T12:00:49.249Z,52.60
2019-04-23T12:03:02.643Z,52.60
2019-04-23T12:06:09.414Z,52.80
2019-04-23T12:08:37.860Z,52.90
2019-04-23T12:12:23.846Z,53.20
2019-04-23T12:14:05.511Z,53.30
2019-04-23T12:16:38.381Z,52.90
2019-04-23T12:19:23.554Z,53.20
2019-04-23T12:21:41.741Z,53.40
2019-04-23T12:29:09.764Z,53.50
2019-04-23T12:31:38.513Z,53.90
2019-04-23T12:34:28.440Z,54.20
2019-04-23T12:36:46.913Z,53.90
2019-04-23T12:39:30.411Z,53.60
2019-04-23T12:42:01.720Z,53.50
2019-04-23T12:44:22.076Z,53.30
2019-04-23T12:47:05.421Z,54.10
2019-04-23T12:52:12.086Z,53.10
2019-04-23T12:54:53.895Z,53.50
2019-04-23T12:57:14.853Z,53.80
2019-04-23T12:59:45.579Z,53.90
2019-04-23T13:02:15.515Z,53.60
2019-04-23T13:04:49.080Z,53.50
2019-04-23T13:07:17.247Z,53.50
2019-04-23T13:09:55.724Z,53.80
2019-04-23T13:12:33.248Z,53.40
2019-04-23T13:17:36.584Z,53.70
2019-04-23T13:20:14.627Z,53.70
2019-04-23T13:22:36.577Z,53.80
2019-04-23T13:24:54.352Z,54.20
2019-04-23T13:27:41.678Z,54.20
2019-04-23T13:32:36.034Z,53.40
2019-04-23T13:40:09.435Z,52.70
2019-04-23T13:45:17.588Z,52.80
2019-04-23T13:50:18.009Z,53.30
2019-04-23T13:55:09.233Z,52.70
2019-04-23T13:58:03.227Z,52.60
2019-04-23T14:00:19.248Z,52.00
2019-04-23T14:02:42.369Z,52.70
2019-04-23T14:05:27.034Z,52.20
2019-04-23T14:08:01.178Z,52.30
2019-04-23T14:13:15.129Z,52.60
2019-04-23T14:15:53.913Z,52.60
2019-04-23T14:18:49.125Z,52.60
2019-04-23T14:23:14.483Z,52.80
2019-04-23T14:25:52.086Z,52.80
2019-04-23T14:30:53.918Z,53.10
2019-04-23T14:33:17.611Z,53.20
2019-04-23T14:35:45.448Z,53.30
2019-04-23T14:38:21.843Z,53.40
2019-04-23T14:43:21.917Z,52.50
2019-04-23T14:46:25.003Z,52.70
2019-04-23T14:48:23.593Z,52.90
2019-04-23T14:51:06.927Z,53.20
2019-04-23T14:53:46.374Z,53.20
2019-04-23T14:56:13.153Z,52.60
2019-04-23T14:58:42.607Z,52.30
2019-04-23T15:01:22.376Z,52.30
2019-04-23T15:06:19.858Z,52.80
2019-04-23T15:08:50.217Z,52.70
2019-04-23T15:24:09.220Z,53.00
2019-04-23T15:27:21.947Z,52.90
2019-04-23T15:28:43.156Z,53.00
2019-04-23T15:49:17.794Z,53.80
2019-04-23T15:54:17.900Z,54.10
2019-04-23T15:59:29.665Z,53.90
2019-04-23T16:01:39.495Z,53.90
2019-04-23T16:03:51.717Z,54.20
2019-04-23T16:06:24.581Z,54.20
2019-04-23T16:09:14.470Z,54.10
2019-04-23T16:11:48.103Z,53.40
2019-04-23T16:14:41.138Z,54.00
2019-04-23T16:16:58.417Z,54.30
2019-04-23T16:19:25.923Z,54.30
2019-04-23T16:22:00.218Z,54.30
2019-04-23T16:24:21.926Z,54.50
2019-04-23T16:27:01.286Z,54.40
2019-04-23T16:32:08.380Z,54.70
2019-04-23T16:34:34.282Z,54.90
2019-04-23T16:37:09.934Z,55.10
2019-04-23T16:39:44.037Z,54.90
2019-04-23T16:42:08.779Z,55.00
2019-04-23T16:44:48.700Z,55.10
2019-04-23T16:49:42.145Z,54.90
2019-04-23T16:52:14.732Z,54.90
2019-04-23T16:54:53.775Z,55.20
2019-04-23T16:57:40.273Z,55.20
2019-04-23T17:00:02.978Z,55.30
2019-04-23T17:02:21.178Z,55.20
2019-04-23T17:04:47.428Z,55.40
2019-04-23T17:07:12.059Z,55.70
2019-04-23T17:10:08.236Z,55.80
2019-04-23T17:12:17.952Z,56.00
2019-04-23T17:14:56.187Z,56.00
2019-04-23T17:17:23.036Z,56.10
2019-04-23T17:20:00.468Z,56.30
2019-04-23T17:22:38.635Z,56.40
2019-04-23T17:25:09.148Z,56.60
2019-04-23T17:27:34.850Z,56.80
2019-04-23T17:29:58.112Z,57.10
2019-04-23T17:32:28.252Z,57.10
2019-04-23T17:35:16.003Z,57.50
2019-04-23T17:43:01.630Z,58.30
2019-04-23T17:45:46.918Z,58.30
2019-04-23T17:48:17.261Z,58.60
2019-04-23T17:53:25.332Z,58.70
2019-04-23T18:03:30.371Z,58.60
2019-04-23T18:06:14.510Z,58.90
2019-04-23T18:08:35.671Z,59.00
2019-04-23T18:11:16.005Z,59.00
2019-04-23T18:13:36.864Z,59.00
2019-04-23T18:16:08.483Z,58.80
2019-04-23T18:18:47.896Z,59.00
2019-04-23T18:21:29.436Z,59.30
2019-04-23T18:24:16.836Z,58.90
2019-04-23T18:27:00.109Z,59.00
2019-04-23T18:32:13.135Z,59.00
2019-04-23T18:34:59.686Z,59.10
2019-04-23T18:37:17.844Z,59.20
2019-04-23T18:39:45.084Z,59.10
2019-04-23T18:42:46.362Z,59.00
2019-04-23T18:47:25.213Z,59.40
2019-04-23T18:52:30.042Z,59.50
2019-04-23T18:54:48.900Z,59.60
2019-04-23T18:57:13.027Z,59.60
2019-04-23T19:00:02.765Z,59.50
2019-04-23T19:02:37.920Z,59.50
2019-04-23T19:07:42.992Z,59.50
2019-04-23T19:13:14.149Z,60.30
2019-04-23T19:15:40.661Z,59.60
2019-04-23T19:18:12.637Z,59.80
2019-04-23T19:21:02.322Z,59.80
2019-04-23T19:23:25.515Z,59.90
2019-04-23T19:25:44.163Z,59.90
2019-04-23T19:28:38.172Z,60.00
2019-04-23T19:33:36.478Z,60.50
2019-04-23T19:36:17.811Z,60.20
2019-04-23T19:41:10.746Z,60.30
2019-04-23T19:43:44.212Z,60.20
2019-04-23T19:46:25.566Z,60.10
2019-04-23T19:48:48.550Z,60.20
2019-04-23T19:51:17.150Z,60.50
2019-04-23T19:54:13.345Z,60.40
2019-04-23T19:56:22.038Z,60.70
2019-04-23T20:06:42.424Z,61.40
2019-04-23T20:11:30.211Z,61.70
2019-04-23T20:21:29.986Z,63.20
2019-04-23T20:26:21.677Z,62.60
2019-04-23T20:34:31.311Z,63.50
2019-04-23T20:36:53.211Z,63.90
2019-04-23T20:47:08.580Z,65.10
2019-04-23T20:52:04.778Z,65.30
2019-04-23T20:57:43.567Z,65.50
2019-04-23T21:00:01.865Z,65.70
2019-04-23T21:02:54.757Z,65.90
2019-04-23T21:07:52.575Z,66.20
2019-04-23T21:10:19.933Z,66.30
2019-04-23T21:15:10.448Z,66.60
2019-04-23T21:22:45.000Z,67.20
2019-04-23T21:25:08.168Z,67.50
2019-04-23T21:27:55.497Z,67.80
2019-04-23T21:30:51.732Z,67.90
2019-04-23T21:36:12.625Z,68.20
2019-04-23T21:38:58.560Z,68.40
2019-04-23T21:41:29.333Z,68.70
2019-04-23T21:46:28.017Z,69.00
2019-04-23T21:49:14.679Z,69.30
2019-04-23T21:51:39.424Z,69.60
2019-04-23T21:56:31.223Z,70.00
2019-04-23T21:59:06.978Z,70.20
2019-04-23T22:01:45.003Z,70.50
2019-04-23T22:04:15.090Z,70.80
2019-04-23T22:06:47.832Z,71.10
2019-04-23T22:09:22.064Z,71.10
2019-04-23T22:11:57.012Z,71.20
2019-04-23T22:14:20.269Z,71.50
2019-04-23T22:19:23.118Z,71.90
2019-04-23T22:27:05.436Z,72.20
2019-04-23T22:29:33.465Z,72.20
2019-04-23T22:32:04.108Z,72.40
2019-04-23T22:34:38.926Z,72.50
2019-04-23T22:39:41.290Z,72.80
2019-04-23T22:42:22.325Z,72.80
2019-04-23T22:44:59.082Z,73.10
2019-04-23T22:49:56.815Z,73.40
2019-04-23T22:54:59.292Z,73.60
2019-04-23T22:57:18.542Z,73.90
2019-04-23T23:00:04.398Z,74.10
2019-04-23T23:05:12.198Z,74.30
2019-04-23T23:07:48.981Z,74.40
2019-04-23T23:10:22.247Z,74.60
2019-04-23T23:12:56.032Z,74.80
2019-04-23T23:15:08.035Z,75.80
2019-04-23T23:17:51.195Z,75.10
2019-04-23T23:22:51.496Z,76.10
2019-04-23T23:27:53.702Z,75.60
2019-04-23T23:32:49.162Z,76.00
2019-04-23T23:35:24.430Z,76.10
2019-04-23T23:37:50.492Z,76.30
2019-04-23T23:40:21.582Z,76.30
2019-04-23T23:43:05.733Z,76.70
2019-04-23T23:47:58.898Z,77.00
2019-04-23T23:50:27.021Z,77.20
2019-04-23T23:53:31.406Z,77.60
2019-04-23T23:55:30.106Z,77.60
2019-04-23T23:58:07.823Z,77.70
